Stacja Pogody Warszawa Praga Północ 


Stacja Pogody
Warszawa Praga Północ

 Szerokość N 52° 15 '43"    Długość E 21° 01' 22"    Wysokość 89 m n.p.m.


Wschód Słońca 04:45 Górowanie Słońca 12:42 Zachód Słońca 20:39 lew
Data juliańska 2456864.863 Odległość Słońca 151943364 km Średn. kątowa Słońca 0,315°
Wschód Księżyca 03:34 Zachód Księżyca 19:16 Wiek Księżyca 28 dni Moon
Widoczność Księżyca 2,50% Odległość Księżyca 402218 km Średn. kątowa Księżyca 0,297°
Dzień krótszy od najdłuższego o: 00:54 Długość dnia 15:53 Imieniny Walentyny, Krzysztofa, Jakuba




Warunki pogodowe uaktualnione 25-07-2014, o godzinie 08:39
Temperatura 18.4 °C → Temperatura odczuwalna 19.7 °C
Punkt rosy 16.7 °C Humidex 23.4 °C
Deszcz na godzinę 0.0 mm Wilgotność względna 90% →
Prędkość wiatru (średnia) 0 km/h → Prędkość wiatru (podmuch) 5 km/h
Kierunek wiatru S Skala Beaufort'a 1
Ciśnienie względne  1016 hPa Trend ciśnienia powolny wzrost
Ciśnienie bezwzględne  1004 hPa Podstawa chmur 294.0 m
METAR EPWA 250630Z 08005KT 040V100 9999
TAF TAF EPWA 250530Z 2506/2606 09010KT CAVOK





 a

Valid XHTML 1.0 Transitional Valid CSS!